Latest Weather Observations for Goulburn Airport

IDN60801

Issued at 10:02 am EDT Wednesday 25 January 2017 (issued every 30 minutes, with the page automatically refreshed every 10 minutes)

About weather observations | Map of weather stations | Latest weather observations for NSW | Other Formats
Station Details ID: 070330 Name: GOULBURN AIRPORT AWS Lat: -34.81 Lon: 149.73 Height: 640.0 m
Data from the previous 72 hours. | See also: Recent months at Goulburn Airport
Date/Time
EDT
Temp
°C
App
Temp
°C
Dew
Point
°C
Rel
Hum
%
Delta-T
°C
Wind Press
QNH
hPa
Press
MSL
hPa
Rain since
9am
mm
Dir  Spd
km/h
Gust
km/h
Spd
kts
Gust
kts
25/10:00am 16.8 14.2 10.6 67 3.4 ENE 15 20 8 11 1022.2 1019.4 0.0
25/09:30am 15.6 13.3 11.6 77 2.2 E 15 22 8 12 1022.3 1019.5 0.0
25/09:00am 14.6 12.7 11.7 83 1.6 E 13 17 7 9 1022.6 1019.8 0.0
25/08:30am 14.0 11.6 11.3 84 1.5 E 15 19 8 10 1022.6 1019.8 0.0
25/08:00am 13.5 11.0 11.0 85 1.4 E 15 22 8 12 1022.5 1019.7 0.0
25/07:58am 13.5 10.6 10.9 84 1.4 E 17 22 9 12 1022.5 1019.7 0.0
25/07:30am 13.2 9.8 11.3 88 1.0 E 20 30 11 16 1022.1 1019.3 0.0
25/07:24am 13.2 10.1 12.1 93 0.6 ENE 20 28 11 15 1022.1 1019.3 0.0
25/07:00am 14.0 11.3 12.9 93 0.6 E 19 24 10 13 1021.7 1018.8 0.0
25/06:58am 14.0 11.3 12.9 93 0.6 E 19 24 10 13 1021.7 1018.8 0.0
25/06:30am 14.0 12.5 13.1 94 0.5 E 13 19 7 10 1021.3 1018.5 0.0
25/06:00am 14.0 12.4 12.9 93 0.6 E 13 17 7 9 1021.2 1018.4 0.0
25/05:50am 14.0 12.4 12.9 93 0.6 E 13 19 7 10 1021.2 1018.4 0.0
25/05:30am 14.0 12.4 12.9 93 0.6 E 13 19 7 10 1021.2 1018.4 0.0
25/05:02am 14.0 11.7 12.9 93 0.6 E 17 24 9 13 1020.7 1017.9 0.0
25/05:00am 14.0 11.7 12.9 93 0.6 E 17 22 9 12 1020.8 1018.0 0.0
25/04:30am 14.1 12.6 13.1 94 0.6 E 13 22 7 12 1020.7 1017.9 0.0
25/04:18am 14.3 13.2 13.2 93 0.6 E 11 17 6 9 1020.7 1017.9 0.0
25/04:00am 14.3 13.2 13.2 93 0.6 E 11 15 6 8 1020.7 1017.9 0.0
25/03:33am 14.3 12.1 13.2 93 0.6 E 17 22 9 12 1020.8 1018.0 0.0
25/03:30am 14.3 12.5 13.2 93 0.6 E 15 22 8 12 1020.7 1017.9 0.0
25/03:12am 14.4 12.5 13.1 92 0.7 E 15 19 8 10 1020.9 1018.1 0.0
25/03:00am 14.5 11.8 13.0 91 0.9 E 19 26 10 14 1020.8 1018.0 0.0
25/02:30am 14.7 12.1 13.1 90 0.9 E 19 26 10 14 1021.0 1018.2 0.0
25/02:00am 14.6 12.7 13.1 91 0.9 E 15 22 8 12 1020.9 1018.1 0.0
25/01:30am 14.8 13.8 13.3 91 0.9 E 11 17 6 9 1021.1 1018.3 0.0
25/01:00am 14.7 13.3 13.4 92 0.7 E 13 17 7 9 1021.1 1018.3 0.0
25/12:30am 14.7 12.1 13.1 90 0.9 E 19 26 10 14 1021.1 1018.3 0.0
25/12:00am 14.9 12.1 13.1 89 1.0 E 20 28 11 15 1020.9 1018.1 0.0
 
Date/Time
EDT
Temp
°C
App
Temp
°C
Dew
Point
°C
Rel
Hum
%
Delta-T
°C
Wind Press
QNH
hPa
Press
MSL
hPa
Rain since
9am
mm
Dir  Spd
km/h
Gust
km/h
Spd
kts
Gust
kts
24/11:30pm 15.0 12.2 13.2 89 1.0 E 20 28 11 15 1020.9 1018.1 0.0
24/11:00pm 15.4 12.2 13.2 87 1.3 E 22 30 12 16 1020.5 1017.6 0.0
24/10:30pm 15.9 13.2 13.6 86 1.3 E 20 33 11 18 1020.3 1017.4 0.0
24/10:00pm 16.2 13.7 14.0 87 1.3 E 20 32 11 17 1019.9 1017.0 0.0
24/09:30pm 16.7 13.6 14.5 87 1.3 E 24 32 13 17 1019.0 1016.1 0.0
24/09:00pm 17.0 14.5 15.2 89 1.1 E 22 32 12 17 1018.5 1015.6 0.0
24/08:30pm 17.7 15.4 15.7 88 1.2 E 22 32 12 17 1017.8 1015.0 0.0
24/08:00pm 18.6 17.1 16.4 87 1.4 E 19 24 10 13 1017.2 1014.3 0.0
24/07:39pm 19.5 18.1 16.9 85 1.6 E 20 26 11 14 1016.6 1013.7 0.0
24/07:30pm 19.7 18.4 16.9 84 1.7 ENE 19 24 10 13 1016.2 1013.3 0.0
24/07:00pm 20.6 18.4 16.8 79 2.4 NE 24 32 13 17 1015.2 1012.3 0.0
24/06:30pm 21.6 19.3 16.6 73 3.1 ENE 24 33 13 18 1014.5 1011.6 0.0
24/06:14pm 23.8 22.2 15.0 57 5.4 NNW 17 37 9 20 1014.1 1011.2 0.0
24/06:00pm 28.8 27.5 16.7 48 7.8 WNW 19 28 10 15 1013.6 1010.6 0.0
24/05:30pm 28.9 27.7 17.1 49 7.6 WNW 19 24 10 13 1013.4 1010.4 0.0
24/05:00pm 29.3 27.4 16.8 47 8.0 W 22 33 12 18 1013.3 1010.3 0.0
24/04:30pm 29.0 26.6 16.5 46 8.0 WNW 24 33 13 18 1013.3 1010.3 0.0
24/04:00pm 28.5 26.4 17.1 50 7.3 W 24 33 13 18 1013.5 1010.5 0.0
24/03:30pm 28.2 24.9 17.1 51 7.1 WNW 30 39 16 21 1013.1 1010.2 0.0
24/03:00pm 28.4 24.1 15.3 45 8.2 WNW 32 46 17 25 1013.0 1010.1 0.0
24/02:55pm 28.9 25.2 15.1 43 8.6 WNW 28 46 15 25 1012.8 1009.9 0.0
24/02:38pm 29.4 24.0 15.1 41 9.0 W 37 50 20 27 1012.7 1009.8 0.0
24/02:30pm 29.6 24.2 15.0 41 9.1 W 37 50 20 27 1012.6 1009.7 0.0
24/02:00pm 30.3 25.8 16.3 42 9.0 W 35 48 19 26 1012.5 1009.6 0.0
24/01:31pm 29.9 24.6 15.2 41 9.2 W 37 56 20 30 1012.2 1009.2 0.0
24/01:30pm 29.8 24.1 15.1 40 9.2 W 39 56 21 30 1012.2 1009.2 0.0
24/01:14pm 30.6 24.7 14.7 38 10.0 WNW 39 57 21 31 1012.0 1009.0 0.0
24/01:00pm 30.0 24.5 15.7 42 9.1 W 39 56 21 30 1012.1 1009.1 0.0
24/12:31pm 28.8 23.4 17.0 49 7.6 W 41 59 22 32 1012.1 1009.1 0.0
24/12:30pm 28.6 22.7 16.8 48 7.6 W 43 59 23 32 1012.1 1009.1 0.0
24/12:12pm 29.3 25.4 17.8 50 7.5 W 35 54 19 29 1012.0 1009.0 0.0
24/12:00pm 29.4 25.5 18.8 53 7.0 WNW 37 52 20 28 1011.9 1008.9 0.0
24/11:30am 28.7 23.8 19.1 56 6.4 WNW 43 59 23 32 1011.8 1008.8 0.0
24/11:17am 28.4 24.8 20.2 61 5.5 WNW 39 57 21 31 1011.8 1008.8 0.0
24/11:00am 27.0 23.6 19.9 65 4.7 WNW 37 52 20 28 1011.8 1008.8 0.0
24/10:41am 26.3 23.3 19.9 68 4.3 NW 35 54 19 29 1011.7 1008.7 0.0
24/10:30am 25.8 22.5 20.1 71 3.8 WNW 37 50 20 27 1011.7 1008.7 0.0
24/10:05am 25.3 21.7 20.1 73 3.5 NW 39 57 21 31 1011.2 1008.3 0.0
24/10:00am 25.4 21.0 20.2 73 3.5 NW 43 57 23 31 1011.1 1008.2 0.0
24/09:36am 25.4 22.1 20.0 72 3.6 NW 37 56 20 30 1011.3 1008.4 0.0
24/09:30am 25.4 21.7 20.0 72 3.6 NW 39 56 21 30 1011.2 1008.3 0.0
24/09:25am 25.3 21.9 19.9 72 3.6 NW 37 56 20 30 1011.3 1008.4 0.0
24/09:00am 25.0 21.8 19.4 71 3.7 NW 35 50 19 27 1011.4 1008.5 0.0
24/08:30am 24.9 20.8 19.1 70 3.8 NW 39 50 21 27 1011.6 1008.6 0.0
24/08:00am 24.8 20.5 18.7 69 4.0 NW 39 50 21 27 1011.2 1008.3 0.0
24/07:31am 24.8 20.2 18.0 66 4.4 NW 39 57 21 31 1011.3 1008.4 0.0
24/07:30am 24.8 19.8 18.0 66 4.4 NW 41 57 22 31 1011.2 1008.3 0.0
24/07:07am 25.5 19.7 16.9 59 5.5 NW 43 61 23 33 1011.1 1008.2 0.0
24/07:00am 25.9 20.8 16.7 57 5.8 NW 39 56 21 30 1011.1 1008.2 0.0
24/06:43am 26.6 22.6 16.2 52 6.6 NW 32 57 17 31 1010.6 1007.6 0.0
24/06:30am 25.8 22.9 16.1 55 6.1 NW 26 37 14 20 1010.4 1007.4 0.0
24/06:04am 26.8 22.2 16.1 52 6.8 NW 35 57 19 31 1010.1 1007.1 0.0
24/06:00am 26.8 22.6 15.8 51 6.9 NW 32 46 17 25 1010.2 1007.2 0.0
24/05:30am 26.8 21.9 16.4 53 6.6 NW 37 56 20 30 1009.4 1006.4 0.0
24/05:28am 26.8 21.9 16.4 53 6.6 NW 37 56 20 30 1009.4 1006.4 0.0
24/05:00am 26.7 22.7 16.6 54 6.4 NNW 33 46 18 25 1008.9 1005.9 0.0
24/04:50am 26.8 22.7 16.4 53 6.6 NNW 33 52 18 28 1008.7 1005.7 0.0
24/04:30am 27.0 21.6 16.0 51 6.9 NW 39 54 21 29 1008.6 1005.6 0.0
24/04:10am 27.4 22.8 16.1 50 7.1 NNW 35 54 19 29 1008.7 1005.7 0.0
24/04:00am 27.5 22.4 15.8 48 7.4 NNW 37 52 20 28 1008.6 1005.6 0.0
24/03:30am 27.7 23.2 15.4 47 7.7 NNW 33 52 18 28 1008.6 1005.6 0.0
24/03:06am 28.1 22.8 15.4 46 8.0 NNW 37 56 20 30 1008.7 1005.7 0.0
24/03:00am 28.0 23.5 15.3 46 8.0 NNW 33 48 18 26 1008.8 1005.8 0.0
24/02:40am 28.1 23.6 15.4 46 8.0 NNW 33 52 18 28 1008.8 1005.8 0.0
24/02:30am 28.1 23.6 15.4 46 8.0 NNW 33 46 18 25 1008.9 1005.9 0.0
24/02:00am 28.3 24.4 15.6 46 8.0 NNW 30 43 16 23 1009.1 1006.1 0.0
24/01:30am 28.2 24.8 15.8 47 7.8 NNW 28 37 15 20 1009.7 1006.8 0.0
24/01:00am 26.6 25.8 17.1 56 6.1 NNW 17 22 9 12 1010.0 1007.0 0.0
24/12:30am 24.8 25.7 17.5 64 4.7 NNW 9 17 5 9 1010.5 1007.5 0.0
24/12:00am 24.3 25.6 17.1 64 4.6 NW 6 7 3 4 1010.7 1007.7 0.0
 
Date/Time
EDT
Temp
°C
App
Temp
°C
Dew
Point
°C
Rel
Hum
%
Delta-T
°C
Wind Press
QNH
hPa
Press
MSL
hPa
Rain since
9am
mm
Dir  Spd
km/h
Gust
km/h
Spd
kts
Gust
kts
23/11:30pm 25.4 26.7 17.1 60 5.3 NW 6 7 3 4 1011.1 1008.2 0.0
23/11:00pm 25.5 26.1 17.7 62 5.0 NNW 11 13 6 7 1011.3 1008.4 0.0
23/10:30pm 26.2 27.3 18.1 61 5.3 NNW 9 13 5 7 1011.2 1008.3 0.0
23/10:00pm 25.8 27.2 18.7 65 4.6 NW 9 11 5 6 1011.7 1008.7 0.0
23/09:30pm 24.8 26.5 19.4 72 3.6 NW 9 13 5 7 1011.8 1008.8 0.0
23/09:00pm 24.4 26.4 19.2 73 3.4 N 7 9 4 5 1011.4 1008.5 0.0
23/08:30pm 24.6 25.8 19.0 71 3.7 N 11 15 6 8 1011.2 1008.3 0.0
23/08:00pm 25.6 26.8 19.0 67 4.3 NW 11 17 6 9 1011.0 1008.1 0.0
23/07:30pm 25.8 24.1 19.0 66 4.5 W 26 33 14 18 1011.1 1008.2 0.0
23/07:00pm 25.5 22.0 18.7 66 4.4 W 35 50 19 27 1010.8 1007.8 0.0
23/06:39pm 26.3 20.2 17.6 58 5.6 W 46 67 25 36 1010.8 1007.8 0.0
23/06:32pm 29.1 25.3 16.6 46 8.0 WNW 32 67 17 36 1010.4 1007.4 0.0
23/06:30pm 31.9 28.2 15.0 36 10.7 NW 28 65 15 35 1010.1 1007.1 0.0
23/06:00pm 33.0 30.3 13.6 31 12.1 WNW 20 28 11 15 1009.3 1006.3 0.0
23/05:30pm 33.7 30.3 13.7 30 12.5 NW 24 33 13 18 1009.4 1006.4 0.0
23/05:00pm 34.3 30.0 13.2 28 13.1 NW 28 43 15 23 1009.4 1006.4 0.0
23/04:30pm 35.3 31.3 14.0 28 13.4 NW 28 41 15 22 1009.9 1006.9 0.0
23/04:00pm 34.6 30.6 14.0 29 13.0 NW 28 44 15 24 1010.4 1007.4 0.0
23/03:53pm 34.4 30.1 14.3 30 12.7 NW 30 48 16 26 1010.5 1007.5 0.0
23/03:30pm 35.0 30.7 15.8 31 12.4 NW 33 46 18 25 1010.9 1008.0 0.0
23/03:16pm 34.6 30.3 15.5 32 12.3 NW 32 52 17 28 1011.0 1008.1 0.0
23/03:00pm 34.2 30.2 15.1 31 12.2 NW 30 46 16 25 1011.3 1008.4 0.0
23/02:32pm 33.4 30.0 15.8 34 11.3 NW 28 46 15 25 1011.7 1008.7 0.0
23/02:30pm 32.5 29.7 16.3 37 10.4 NW 26 46 14 25 1011.8 1008.8 0.0
23/02:15pm 33.6 29.9 16.0 34 11.3 NW 30 50 16 27 1011.8 1008.8 0.0
23/02:00pm 33.3 29.1 15.8 35 11.2 WNW 32 46 17 25 1011.9 1008.9 0.0
23/01:30pm 32.1 29.0 15.6 37 10.5 NW 26 39 14 21 1012.3 1009.4 0.0
23/01:00pm 32.2 29.3 15.2 35 10.8 NW 24 30 13 16 1012.7 1009.8 0.0
23/12:30pm 33.4 30.6 16.3 36 11.1 NW 26 41 14 22 1013.0 1010.1 0.0
23/12:00pm 31.4 28.6 15.4 38 10.2 NW 24 35 13 19 1013.4 1010.4 0.0
23/11:30am 30.7 27.1 15.2 39 9.8 NW 28 43 15 23 1013.8 1010.9 0.0
23/11:00am 30.0 27.4 14.9 39 9.5 NW 22 33 12 18 1014.2 1011.3 0.0
23/10:30am 29.7 26.9 15.4 42 9.0 NNW 24 35 13 19 1014.4 1011.5 0.0
23/10:00am 25.9 25.9 15.3 52 6.6 NNE 9 17 5 9 1014.9 1011.9 0.0
23/09:30am 23.1 24.0 15.2 61 4.8 ENE 4 9 2 5 1015.3 1012.4 0.0
23/09:00am 20.1 20.8 15.5 75 2.8 ENE 6 9 3 5 1015.6 1012.7 0.0
23/08:30am 17.6 19.2 14.9 84 1.6 CALM 0 0 0 0 1015.7 1012.8 0.0
23/08:00am 16.3 17.5 15.0 92 0.8 SSW 2 6 1 3 1015.5 1012.6 0.0
23/07:30am 14.6 15.5 14.1 97 0.3 SW 2 6 1 3 1015.2 1012.3 0.0
23/07:00am 13.4 14.4 13.1 98 0.2 CALM 0 0 0 0 1015.2 1012.3 0.0
23/06:45am 12.5 13.1 12.0 97 0.3 CALM 0 0 0 0 1015.3 1012.4 0.0
23/06:30am 12.0 11.7 11.5 97 0.3 SW 4 7 2 4 1015.3 1012.4 0.0
23/06:09am 12.4 11.3 11.9 97 0.3 SSW 9 11 5 6 1015.0 1012.0 0.0
23/06:00am 11.8 11.8 11.2 96 0.3 S 2 11 1 6 1015.1 1012.2 0.0
23/05:30am 11.7 12.0 10.9 95 0.4 CALM 0 0 0 0 1014.7 1011.8 0.0
23/05:28am 11.5 11.7 10.7 95 0.4 CALM 0 0 0 0 1014.7 1011.8 0.0
23/05:00am 12.8 12.3 12.2 96 0.3 S 6 7 3 4 1014.4 1011.5 0.0
23/04:30am 13.0 13.7 12.2 95 0.4 CALM 0 0 0 0 1014.6 1011.7 0.0
23/04:00am 13.3 12.8 12.5 95 0.4 S 7 9 4 5 1014.7 1011.8 0.0
23/03:30am 13.4 12.9 12.6 95 0.4 S 7 11 4 6 1014.9 1011.9 0.0
23/03:00am 13.3 12.8 12.5 95 0.4 S 7 9 4 5 1014.7 1011.8 0.0
23/02:30am 13.7 13.4 12.8 94 0.5 S 6 7 3 4 1015.1 1012.2 0.0
23/02:00am 13.9 13.6 12.6 92 0.7 SSW 6 7 3 4 1015.5 1012.6 0.0
23/01:30am 14.3 14.0 12.7 90 0.9 SE 6 7 3 4 1015.7 1012.8 0.0
23/01:00am 14.8 14.7 13.2 90 0.9 SE 6 9 3 5 1016.1 1013.2 0.0
23/12:30am 15.6 15.1 13.8 89 1.0 SE 9 11 5 6 1016.4 1013.6 0.0
23/12:00am 16.2 16.2 14.2 88 1.2 SE 7 11 4 6 1016.7 1013.8 0.0
 
Date/Time
EDT
Temp
°C
App
Temp
°C
Dew
Point
°C
Rel
Hum
%
Delta-T
°C
Wind Press
QNH
hPa
Press
MSL
hPa
Rain since
9am
mm
Dir  Spd
km/h
Gust
km/h
Spd
kts
Gust
kts
22/11:30pm 16.7 15.6 14.3 86 1.4 ESE 13 17 7 9 1016.4 1013.6 0.0
22/11:00pm 16.9 16.1 14.0 83 1.7 ESE 11 13 6 7 1016.6 1013.7 0.0
22/10:30pm 17.8 17.4 14.1 79 2.2 SE 9 13 5 7 1016.6 1013.7 0.0
22/10:00pm 18.9 18.1 14.0 73 2.9 SE 11 13 6 7 1016.6 1013.7 0.0
22/09:30pm 20.8 20.2 14.5 67 3.8 ENE 11 19 6 10 1016.1 1013.2 0.0
22/09:00pm 20.7 20.7 14.1 66 3.9 E 7 13 4 7 1015.7 1012.8 0.0
22/08:30pm 22.1 20.7 14.5 62 4.6 E 15 24 8 13 1015.4 1012.5 0.0
22/08:00pm 22.9 21.0 14.2 58 5.2 ENE 17 26 9 14 1015.0 1012.0 0.0
22/07:30pm 24.4 21.3 14.5 54 6.0 ENE 24 32 13 17 1014.7 1011.8 0.0
22/07:00pm 25.6 22.7 14.1 49 7.0 ENE 22 32 12 17 1014.5 1011.6 0.0
22/06:30pm 26.7 23.1 14.1 46 7.7 ENE 26 37 14 20 1014.1 1011.2 0.0
22/06:00pm 27.4 22.9 13.7 43 8.4 ENE 30 41 16 22 1013.9 1011.0 0.0
22/05:30pm 29.6 27.4 13.4 37 9.9 NE 17 28 9 15 1013.9 1011.0 0.0
22/05:00pm 29.9 28.1 9.4 28 11.8 N 9 20 5 11 1014.3 1011.4 0.0
22/04:30pm 30.1 27.3 10.1 29 11.6 N 15 28 8 15 1014.4 1011.5 0.0
22/04:00pm 29.5 28.5 11.1 32 10.9 NE 7 17 4 9 1014.6 1011.7 0.0
22/03:30pm 29.3 28.3 12.3 35 10.2 NE 9 17 5 9 1015.0 1012.0 0.0
22/03:00pm 28.6 26.8 10.8 33 10.4 ENE 11 19 6 10 1015.4 1012.5 0.0
22/02:30pm 27.8 26.4 10.9 35 9.9 ESE 9 15 5 8 1015.8 1012.9 0.0
22/02:00pm 26.9 24.4 11.0 37 9.3 N 15 24 8 13 1016.1 1013.2 0.0
22/01:30pm 26.5 25.1 12.2 41 8.5 NE 11 20 6 11 1016.4 1013.6 0.0
22/01:00pm 25.5 24.2 12.4 44 7.8 E 11 20 6 11 1016.8 1013.9 0.0
22/12:30pm 24.6 22.9 12.5 46 7.2 NNE 13 20 7 11 1017.2 1014.3 0.0
22/12:00pm 24.0 22.6 13.5 52 6.3 E 13 20 7 11 1017.6 1014.7 0.0
22/11:30am 22.6 21.4 12.8 54 5.8 ENE 11 17 6 9 1017.8 1015.0 0.0
22/11:00am 21.2 20.2 12.3 57 5.2 ENE 9 19 5 10 1018.0 1015.2 0.0
22/10:30am 19.8 18.9 12.6 63 4.2 ENE 9 20 5 11 1018.4 1015.5 0.0
22/10:06am 19.0 18.1 12.5 66 3.7 NE 9 15 5 8 1018.5 1015.6 0.0

Other Formats:

Comma delimited format used in spreadsheet applications
http://www.bom.gov.au/fwo/IDN60801/IDN60801.95716.axf

JavaScript Object Notation format (JSON) in row-major order
http://www.bom.gov.au/fwo/IDN60801/IDN60801.95716.json